Time;durP1;ratioP1;P1;durP2;ratioP2;P2;SDS_P1;SDS_P2;PMS_P1;PMS_P2;Temp;Humidity;BMP_temperature;BMP_pressure;BME280_temperature;BME280_humidity;BME280_pressure;Samples;Min_cycle;Max_cycle;Signal;HPM_P1;HPM_P2
2023/10/12 00:02:04;;;;;;;5.73;5.10;;;19.40;1.00;;;;;;6308148;22;20386;-40
2023/10/12 00:05:20;;;;;;;7.13;5.80;;;19.30;1.00;;;;;;6308363;22;20406;-40
2023/10/12 00:07:33;;;;;;;7.07;5.33;;;19.20;1.00;;;;;;6285571;22;20442;-39
2023/10/12 00:12:35;;;;;;;11.50;6.50;;;19.10;1.00;;;;;;6307516;22;20354;-40
2023/10/12 00:15:23;;;;;;;8.50;5.50;;;19.00;1.00;;;;;;6282468;22;20363;-39
2023/10/12 00:17:56;;;;;;;8.67;5.53;;;19.00;1.00;;;;;;6310692;22;20401;-40
2023/10/12 00:20:32;;;;;;;6.63;5.53;;;18.90;1.00;;;;;;6310464;22;20927;-41
2023/10/12 00:22:59;;;;;;;7.33;5.43;;;18.90;1.00;;;;;;6310226;22;20385;-39
2023/10/12 00:25:25;;;;;;;6.60;5.73;;;18.80;1.00;;;;;;6311182;22;20456;-40
2023/10/12 00:27:51;;;;;;;10.03;5.63;;;18.80;1.00;;;;;;6310833;22;20793;-41
2023/10/12 00:30:17;;;;;;;6.10;5.40;;;18.80;1.00;;;;;;6311054;22;20355;-42
2023/10/12 00:32:43;;;;;;;7.00;5.30;;;18.80;1.00;;;;;;6310629;22;20389;-41
2023/10/12 00:35:14;;;;;;;13.50;6.43;;;18.80;1.00;;;;;;6310544;22;20753;-41
2023/10/12 00:37:41;;;;;;;8.20;5.40;;;18.80;1.00;;;;;;6310148;22;20443;-42
2023/10/12 00:40:31;;;;;;;6.33;5.23;;;18.70;1.00;;;;;;6283425;22;20398;-40
2023/10/12 00:43:00;;;;;;;9.63;5.57;;;18.70;1.00;;;;;;6309291;22;20386;-39
2023/10/12 00:45:29;;;;;;;9.10;5.90;;;18.70;1.00;;;;;;6309666;22;20354;-40
2023/10/12 00:48:07;;;;;;;6.87;5.67;;;18.70;1.00;;;;;;6310914;22;20521;-40
2023/10/12 00:50:36;;;;;;;12.13;5.27;;;18.60;1.00;;;;;;6310449;22;20700;-41
2023/10/12 00:55:46;;;;;;;11.03;5.73;;;18.60;1.00;;;;;;6310683;22;20394;-39
2023/10/12 00:58:14;;;;;;;9.37;6.13;;;18.60;1.00;;;;;;6310409;22;20497;-41
2023/10/12 01:00:46;;;;;;;7.30;6.10;;;18.60;1.00;;;;;;6308474;22;20354;-39
2023/10/12 01:03:30;;;;;;;8.50;5.80;;;18.60;1.00;;;;;;6309476;22;20373;-39
2023/10/12 01:08:35;;;;;;;9.67;6.10;;;18.50;1.00;;;;;;6310873;22;20429;-39
2023/10/12 01:11:06;;;;;;;7.27;5.73;;;18.60;1.00;;;;;;6308993;22;20386;-39
2023/10/12 01:13:35;;;;;;;6.33;5.13;;;18.50;1.00;;;;;;6309323;22;20397;-41
2023/10/12 01:16:08;;;;;;;6.63;5.47;;;18.50;1.00;;;;;;6308967;22;20398;-43
2023/10/12 01:18:34;;;;;;;8.33;5.80;;;18.50;1.00;;;;;;6309547;22;20706;-41
2023/10/12 01:21:03;;;;;;;10.90;5.73;;;18.50;1.00;;;;;;6282723;22;20409;-40
2023/10/12 01:23:29;;;;;;;7.40;5.73;;;18.50;1.00;;;;;;6283318;22;20389;-39
2023/10/12 01:26:03;;;;;;;8.60;6.43;;;18.50;1.00;;;;;;6309314;22;20389;-40
2023/10/12 01:28:29;;;;;;;7.47;5.50;;;18.50;1.00;;;;;;6309949;22;20240;-40
2023/10/12 01:30:55;;;;;;;6.90;5.60;;;18.50;1.00;;;;;;6309492;22;20663;-41
2023/10/12 01:33:20;;;;;;;6.90;6.20;;;18.50;1.00;;;;;;6309866;22;20128;-39
2023/10/12 01:35:48;;;;;;;6.73;5.10;;;18.40;1.00;;;;;;6309308;22;20152;-39
2023/10/12 01:38:14;;;;;;;7.70;5.90;;;18.40;1.00;;;;;;6309681;22;20152;-40
2023/10/12 01:43:17;;;;;;;9.67;5.53;;;18.40;1.00;;;;;;6310193;22;20393;-39
2023/10/12 01:45:43;;;;;;;8.20;5.20;;;18.40;1.00;;;;;;6309231;22;20367;-40
2023/10/12 01:48:15;;;;;;;6.13;5.53;;;18.40;1.00;;;;;;6308878;22;20406;-39
2023/10/12 01:50:41;;;;;;;7.80;5.87;;;18.40;1.00;;;;;;6309958;22;20477;-41
2023/10/12 01:55:46;;;;;;;8.30;5.80;;;18.30;1.00;;;;;;6308722;22;20382;-40
2023/10/12 01:58:14;;;;;;;8.60;6.47;;;18.30;1.00;;;;;;6309511;22;20892;-39
2023/10/12 02:00:41;;;;;;;7.40;6.17;;;18.30;1.00;;;;;;6308688;22;20409;-41
2023/10/12 02:03:17;;;;;;;7.60;6.30;;;18.30;1.00;;;;;;6309139;22;20386;-50
2023/10/12 02:08:32;;;;;;;8.90;6.10;;;18.30;1.00;;;;;;6308892;22;20483;-43
2023/10/12 02:13:51;;;;;;;7.77;5.97;;;18.20;1.00;;;;;;6309469;22;20634;-39
2023/10/12 02:18:56;;;;;;;9.50;6.43;;;18.10;1.00;;;;;;6309081;22;20521;-42
2023/10/12 02:21:25;;;;;;;7.27;5.70;;;18.10;1.00;;;;;;6281888;22;20351;-50
2023/10/12 02:23:57;;;;;;;8.20;6.03;;;18.10;1.00;;;;;;6309554;22;20182;-39
2023/10/12 02:26:37;;;;;;;8.43;5.93;;;18.10;1.00;;;;;;6308349;22;20716;-40
2023/10/12 02:34:18;;;;;;;7.00;5.90;;;18.10;1.00;;;;;;6309294;22;20556;-41
2023/10/12 02:37:00;;;;;;;7.20;5.57;;;18.10;1.00;;;;;;6256622;22;20385;-39
2023/10/12 02:39:30;;;;;;;9.37;7.30;;;18.10;1.00;;;;;;6309060;22;20362;-38
2023/10/12 02:47:22;;;;;;;7.80;6.83;;;18.00;1.00;;;;;;6308886;22;20460;-40
2023/10/12 02:49:50;;;;;;;8.87;6.20;;;18.00;1.00;;;;;;6310077;22;20463;-39
2023/10/12 02:52:16;;;;;;;6.53;5.93;;;18.00;1.00;;;;;;6282335;22;20390;-39
2023/10/12 02:54:51;;;;;;;8.03;5.70;;;18.00;1.00;;;;;;6308226;22;20416;-38
2023/10/12 02:57:31;;;;;;;7.10;5.57;;;18.00;1.00;;;;;;6309347;22;20160;-39
2023/10/12 02:59:57;;;;;;;8.17;6.30;;;18.00;1.00;;;;;;6309035;22;20385;-40
2023/10/12 03:02:32;;;;;;;8.43;6.67;;;18.00;1.00;;;;;;6309660;22;20382;-41
2023/10/12 03:05:06;;;;;;;8.93;6.20;;;18.00;1.00;;;;;;6283801;22;20386;-41
2023/10/12 03:07:35;;;;;;;6.53;5.60;;;18.00;1.00;;;;;;6307762;22;20464;-39
2023/10/12 03:10:06;;;;;;;7.17;5.60;;;18.00;1.00;;;;;;6307504;22;20378;-42
2023/10/12 03:12:35;;;;;;;9.40;5.33;;;18.00;1.00;;;;;;6307214;22;20355;-40
2023/10/12 03:15:12;;;;;;;12.47;6.10;;;18.10;1.00;;;;;;6307556;22;20454;-40
2023/10/12 03:17:45;;;;;;;6.40;5.60;;;18.10;1.00;;;;;;6307738;22;20377;-40
2023/10/12 03:21:00;;;;;;;7.43;5.80;;;18.10;1.00;;;;;;6309088;22;20533;-41
2023/10/12 03:23:13;;;;;;;7.50;5.17;;;18.20;1.00;;;;;;6301910;22;20394;-40
2023/10/12 03:25:46;;;;;;;9.33;5.70;;;18.20;1.00;;;;;;6307659;22;20424;-39
2023/10/12 03:28:13;;;;;;;8.60;5.67;;;18.20;1.00;;;;;;6307583;22;20432;-41
2023/10/12 03:30:52;;;;;;;7.00;5.37;;;18.30;1.00;;;;;;6307770;22;20449;-41
2023/10/12 03:33:19;;;;;;;8.53;6.60;;;18.30;1.00;;;;;;6308502;22;20638;-42
2023/10/12 03:38:33;;;;;;;6.10;5.50;;;18.30;1.00;;;;;;6260727;22;20386;-41
2023/10/12 03:44:06;;;;;;;6.93;4.70;;;18.40;1.00;;;;;;6257705;22;20414;-39
2023/10/12 03:46:32;;;;;;;7.27;5.70;;;18.40;1.00;;;;;;6308740;22;20389;-39
2023/10/12 03:49:23;;;;;;;8.40;6.00;;;18.40;1.00;;;;;;6282781;22;20378;-41
2023/10/12 03:51:49;;;;;;;6.83;5.93;;;18.40;1.00;;;;;;6309496;22;20355;-40
2023/10/12 03:54:18;;;;;;;7.40;5.10;;;18.40;1.00;;;;;;6308748;22;20351;-40
2023/10/12 03:56:48;;;;;;;6.60;5.10;;;18.40;1.00;;;;;;6281564;22;20674;-40
2023/10/12 03:59:19;;;;;;;6.63;5.57;;;18.40;1.00;;;;;;6306298;22;20436;-40
2023/10/12 04:01:46;;;;;;;6.57;5.60;;;18.40;1.00;;;;;;6305564;22;20391;-41
2023/10/12 04:04:29;;;;;;;8.87;5.30;;;18.40;1.00;;;;;;6307463;22;20473;-40
2023/10/12 04:09:42;;;;;;;6.10;5.33;;;18.40;1.00;;;;;;6309674;22;20351;-42
2023/10/12 04:14:48;;;;;;;8.90;5.50;;;18.30;1.00;;;;;;6307976;22;20489;-41
2023/10/12 04:20:22;;;;;;;6.43;5.03;;;18.30;1.00;;;;;;6308351;22;20445;-41
2023/10/12 04:26:08;;;;;;;10.63;6.47;;;18.30;1.00;;;;;;6307900;22;20393;-39
2023/10/12 04:28:23;;;;;;;6.30;5.37;;;18.30;1.00;;;;;;6295592;22;20872;-39
2023/10/12 04:31:20;;;;;;;9.10;5.70;;;18.20;1.00;;;;;;6307378;22;20434;-41
2023/10/12 04:36:24;;;;;;;7.27;5.50;;;18.30;1.00;;;;;;6308070;22;20746;-41
2023/10/12 04:39:11;;;;;;;7.33;6.53;;;18.20;1.00;;;;;;6306246;22;20637;-40
2023/10/12 04:47:05;;;;;;;8.63;6.07;;;18.20;1.00;;;;;;6305604;22;20429;-40
2023/10/12 04:54:29;;;;;;;5.93;5.43;;;18.20;1.00;;;;;;6303410;22;20369;-40
2023/10/12 05:00:06;;;;;;;6.03;5.00;;;18.10;1.00;;;;;;6299996;22;20164;-40
2023/10/12 05:07:27;;;;;;;6.27;5.20;;;18.10;1.00;;;;;;6275647;22;20739;-39
2023/10/12 05:09:56;;;;;;;8.30;5.77;;;18.10;1.00;;;;;;6299439;22;20350;-39
2023/10/12 05:12:23;;;;;;;7.07;5.90;;;18.00;1.00;;;;;;6298088;22;20382;-40
2023/10/12 05:14:55;;;;;;;6.10;5.50;;;18.00;1.00;;;;;;6246858;22;20433;-39
2023/10/12 05:17:24;;;;;;;5.33;4.83;;;18.00;1.00;;;;;;6294457;22;20494;-42
2023/10/12 05:19:52;;;;;;;5.83;5.20;;;18.00;1.00;;;;;;6293698;22;20430;-40
2023/10/12 05:22:18;;;;;;;6.20;5.27;;;18.00;1.00;;;;;;6297290;22;20748;-39
2023/10/12 05:24:46;;;;;;;6.33;5.73;;;18.00;1.00;;;;;;6271632;22;20676;-43
2023/10/12 05:27:33;;;;;;;6.10;5.20;;;18.00;1.00;;;;;;6273827;22;20414;-41
2023/10/12 05:30:06;;;;;;;8.93;6.17;;;18.00;1.00;;;;;;6303142;22;20448;-40
2023/10/12 05:32:42;;;;;;;6.53;5.43;;;18.00;1.00;;;;;;6302518;22;20393;-41
2023/10/12 05:35:15;;;;;;;6.67;5.20;;;18.00;1.00;;;;;;6301483;22;20378;-40
2023/10/12 05:37:48;;;;;;;7.20;5.53;;;18.00;1.00;;;;;;6301598;22;20501;-40
2023/10/12 05:40:16;;;;;;;8.70;5.73;;;18.00;1.00;;;;;;6302001;22;20386;-44
2023/10/12 05:42:46;;;;;;;6.40;5.20;;;18.00;1.00;;;;;;6302704;22;20468;-44
2023/10/12 05:45:44;;;;;;;5.93;5.30;;;18.00;1.00;;;;;;6301812;22;20377;-41
2023/10/12 05:48:03;;;;;;;6.43;5.57;;;18.00;1.00;;;;;;6296049;22;20426;-42
2023/10/12 05:50:31;;;;;;;6.07;5.47;;;18.00;1.00;;;;;;6303129;22;20689;-40
2023/10/12 05:52:59;;;;;;;6.90;5.80;;;18.00;1.00;;;;;;6303345;22;20402;-41
2023/10/12 05:55:25;;;;;;;6.20;5.60;;;18.10;1.00;;;;;;6275512;22;20485;-40
2023/10/12 05:57:51;;;;;;;10.10;5.70;;;18.10;1.00;;;;;;6305900;22;20670;-40
2023/10/12 06:00:36;;;;;;;6.83;5.70;;;18.10;1.00;;;;;;6279069;22;20392;-40
2023/10/12 06:03:05;;;;;;;7.23;5.03;;;18.20;1.00;;;;;;6302431;22;20158;-40
2023/10/12 06:05:32;;;;;;;8.07;6.10;;;18.20;1.00;;;;;;6277979;22;20402;-40
2023/10/12 06:08:01;;;;;;;8.10;5.80;;;18.20;1.00;;;;;;6304764;22;20408;-40
2023/10/12 06:10:30;;;;;;;17.10;6.33;;;18.30;1.00;;;;;;6276545;22;20405;-41
2023/10/12 06:12:56;;;;;;;12.50;5.80;;;18.40;1.00;;;;;;6303089;22;20402;-41
2023/10/12 06:15:25;;;;;;;7.50;6.03;;;18.60;1.00;;;;;;6303198;22;20359;-40
2023/10/12 06:17:55;;;;;;;8.10;6.03;;;18.90;1.00;;;;;;6277963;22;20553;-42
2023/10/12 06:23:08;;;;;;;8.20;6.00;;;19.20;1.00;;;;;;6271943;22;20617;-42
2023/10/12 06:25:38;;;;;;;7.77;5.40;;;19.40;1.00;;;;;;6272262;22;20820;-40
2023/10/12 06:28:14;;;;;;;9.00;5.90;;;19.60;1.00;;;;;;6272265;22;20391;-40
2023/10/12 06:30:44;;;;;;;6.93;5.37;;;19.70;1.00;;;;;;6270920;22;20681;-43
2023/10/12 06:33:14;;;;;;;7.70;5.60;;;19.90;1.00;;;;;;6273098;22;20355;-40
2023/10/12 06:36:22;;;;;;;8.90;6.03;;;20.00;1.00;;;;;;6271232;22;20434;-43
2023/10/12 06:43:57;;;;;;;11.70;6.30;;;20.50;1.00;;;;;;6271505;22;20443;-42
2023/10/12 06:46:34;;;;;;;7.33;6.60;;;20.60;1.00;;;;;;6269317;22;20803;-41
2023/10/12 06:49:00;;;;;;;8.20;5.90;;;20.80;1.00;;;;;;6271669;22;20428;-42
2023/10/12 06:51:28;;;;;;;6.73;5.80;;;20.90;1.00;;;;;;6271673;22;20398;-43
2023/10/12 06:54:06;;;;;;;7.07;6.30;;;21.00;1.00;;;;;;6273348;22;20383;-41
2023/10/12 06:56:32;;;;;;;6.47;5.77;;;21.10;1.00;;;;;;6270786;22;20386;-41
2023/10/12 07:01:43;;;;;;;7.63;5.73;;;21.20;1.00;;;;;;6273553;22;20387;-41
2023/10/12 07:04:26;;;;;;;8.40;6.03;;;21.20;1.00;;;;;;6272980;22;20431;-43
2023/10/12 07:07:07;;;;;;;7.00;5.80;;;21.30;1.00;;;;;;6274383;22;20789;-43
2023/10/12 07:09:39;;;;;;;8.93;6.70;;;21.40;1.00;;;;;;6273620;22;20359;-43
2023/10/12 07:12:10;;;;;;;9.30;5.97;;;21.50;1.00;;;;;;6274502;22;20741;-41
2023/10/12 07:14:43;;;;;;;8.67;6.90;;;21.50;1.00;;;;;;6274689;22;20407;-43
2023/10/12 07:17:09;;;;;;;7.93;6.40;;;21.50;1.00;;;;;;6274373;22;20418;-42
2023/10/12 07:19:46;;;;;;;7.70;5.40;;;21.60;1.00;;;;;;6290424;22;20422;-42
2023/10/12 07:22:15;;;;;;;9.30;6.33;;;21.60;1.00;;;;;;6279355;22;20398;-41
2023/10/12 07:24:54;;;;;;;8.13;6.60;;;21.60;1.00;;;;;;6305886;22;20719;-42
2023/10/12 07:27:23;;;;;;;9.87;6.17;;;21.60;1.00;;;;;;6303874;22;20365;-41
2023/10/12 07:32:54;;;;;;;8.77;5.50;;;21.50;1.00;;;;;;6303364;22;20398;-40
2023/10/12 07:35:31;;;;;;;7.70;6.27;;;21.50;1.00;;;;;;6305240;22;20397;-41
2023/10/12 07:38:14;;;;;;;6.77;5.10;;;21.50;1.00;;;;;;6305653;22;20621;-41
2023/10/12 07:40:51;;;;;;;9.90;5.80;;;21.40;1.00;;;;;;6304669;22;20389;-41
2023/10/12 07:43:18;;;;;;;10.70;6.43;;;21.40;1.00;;;;;;6304593;22;20402;-41
2023/10/12 07:45:50;;;;;;;6.90;5.87;;;21.40;1.00;;;;;;6305049;22;20351;-41
2023/10/12 07:48:39;;;;;;;9.83;6.70;;;21.40;1.00;;;;;;6305395;22;20378;-41
2023/10/12 07:51:16;;;;;;;5.80;5.20;;;21.30;1.00;;;;;;6305944;22;20463;-41
2023/10/12 07:53:49;;;;;;;6.80;5.50;;;21.30;1.00;;;;;;6306241;22;20389;-48
2023/10/12 07:56:18;;;;;;;8.27;5.73;;;21.30;1.00;;;;;;6302950;22;20382;-42
2023/10/12 07:58:59;;;;;;;8.80;6.50;;;21.30;1.00;;;;;;6303864;22;20430;-41
2023/10/12 08:01:38;;;;;;;10.30;6.33;;;21.20;1.00;;;;;;6303231;22;20382;-41
2023/10/12 08:04:28;;;;;;;9.40;6.10;;;21.20;1.00;;;;;;6305862;22;20677;-42
2023/10/12 08:06:55;;;;;;;9.07;5.60;;;21.10;1.00;;;;;;6302290;22;20350;-41
2023/10/12 08:11:50;;;;;;;8.43;6.23;;;21.00;1.00;;;;;;6305661;22;20692;-42
2023/10/12 08:17:25;;;;;;;8.97;6.50;;;21.00;1.00;;;;;;6302713;22;20195;-42
2023/10/12 08:19:42;;;;;;;9.70;6.60;;;21.00;1.00;;;;;;6305199;22;20725;-42
2023/10/12 08:22:25;;;;;;;6.47;5.30;;;21.00;1.00;;;;;;6304591;22;20386;-43
2023/10/12 08:24:56;;;;;;;7.33;6.00;;;21.00;1.00;;;;;;6303111;22;20426;-42
2023/10/12 08:27:23;;;;;;;7.70;5.97;;;21.00;1.00;;;;;;6276924;22;20421;-40
2023/10/12 08:32:27;;;;;;;6.70;5.63;;;20.90;1.00;;;;;;6305322;22;20698;-40
2023/10/12 08:37:35;;;;;;;11.43;7.70;;;20.90;1.00;;;;;;6306842;22;20437;-42
2023/10/12 08:40:26;;;;;;;9.20;6.20;;;20.90;1.00;;;;;;6306112;22;20681;-41
2023/10/12 08:42:55;;;;;;;7.80;6.77;;;20.90;1.00;;;;;;6303818;22;20374;-42
2023/10/12 08:45:23;;;;;;;8.97;6.23;;;20.80;1.00;;;;;;6303198;22;20390;-40
2023/10/12 08:47:49;;;;;;;9.83;6.10;;;20.80;1.00;;;;;;6251920;22;20735;-41
2023/10/12 08:52:50;;;;;;;8.03;5.57;;;20.80;1.00;;;;;;6311903;22;20163;-41
2023/10/12 08:55:19;;;;;;;6.50;5.80;;;20.80;1.00;;;;;;6279859;22;20480;-42
2023/10/12 08:58:12;;;;;;;7.13;6.43;;;20.80;1.00;;;;;;6307165;22;20408;-44
2023/10/12 09:00:39;;;;;;;5.90;4.93;;;20.80;1.00;;;;;;6277466;22;20374;-41
2023/10/12 09:05:51;;;;;;;7.30;6.33;;;20.80;1.00;;;;;;6307750;22;20390;-41
2023/10/12 09:13:28;;;;;;;12.17;6.23;;;20.80;1.00;;;;;;6306185;22;20389;-39
2023/10/12 09:15:55;;;;;;;8.13;5.90;;;20.90;1.00;;;;;;6306179;22;20369;-40
2023/10/12 09:18:29;;;;;;;11.80;6.20;;;20.90;1.00;;;;;;6305436;22;20409;-40
2023/10/12 09:31:23;;;;;;;9.43;7.13;;;21.10;1.00;;;;;;6312154;22;20876;-40
2023/10/12 09:36:53;;;;;;;7.80;6.97;;;21.20;1.00;;;;;;6281740;22;20676;-41
2023/10/12 09:39:28;;;;;;;6.90;6.20;;;21.30;1.00;;;;;;6304012;22;20422;-42
2023/10/12 09:41:55;;;;;;;7.53;6.80;;;21.40;1.00;;;;;;6305541;22;20377;-42
2023/10/12 09:44:27;;;;;;;7.10;6.40;;;21.60;1.00;;;;;;6278109;22;20390;-43
2023/10/12 09:46:56;;;;;;;8.50;6.30;;;21.60;1.00;;;;;;6304381;22;20435;-40
2023/10/12 09:49:27;;;;;;;6.63;6.00;;;21.70;1.00;;;;;;6278052;22;20364;-41
2023/10/12 09:52:00;;;;;;;11.23;7.40;;;21.70;1.00;;;;;;6305060;22;20382;-43
2023/10/12 09:54:45;;;;;;;7.80;6.17;;;21.70;1.00;;;;;;6278134;22;20394;-41
2023/10/12 09:57:26;;;;;;;7.80;6.47;;;21.80;1.00;;;;;;6306573;22;20659;-43
2023/10/12 10:00:17;;;;;;;9.57;6.10;;;21.80;1.00;;;;;;6277420;22;20394;-41
2023/10/12 10:02:43;;;;;;;9.83;6.20;;;21.80;1.00;;;;;;6302675;22;20405;-41
2023/10/12 10:05:27;;;;;;;7.40;6.27;;;21.80;1.00;;;;;;6278617;22;20409;-48
2023/10/12 10:08:03;;;;;;;8.53;7.10;;;21.90;1.00;;;;;;6304661;22;20128;-41
2023/10/12 10:10:34;;;;;;;11.83;8.17;;;21.90;1.00;;;;;;6275860;22;20718;-42
2023/10/12 10:13:00;;;;;;;8.77;6.30;;;22.00;1.00;;;;;;6279922;22;20493;-40
2023/10/12 10:15:42;;;;;;;9.63;6.83;;;22.00;1.00;;;;;;6277419;22;20390;-41
2023/10/12 10:18:15;;;;;;;8.00;6.60;;;22.10;1.00;;;;;;6304663;22;20422;-43
2023/10/12 10:20:53;;;;;;;10.27;6.57;;;22.10;1.00;;;;;;6302170;22;20873;-40
2023/10/12 10:23:19;;;;;;;9.70;7.03;;;22.20;1.00;;;;;;6283209;22;20485;-40
2023/10/12 10:26:14;;;;;;;9.20;6.50;;;22.30;1.00;;;;;;6276122;22;20380;-40
2023/10/12 10:28:53;;;;;;;9.40;7.50;;;22.30;1.00;;;;;;6302877;22;20400;-40
2023/10/12 10:31:28;;;;;;;7.50;6.80;;;22.30;1.00;;;;;;6305400;22;20370;-42
2023/10/12 10:34:05;;;;;;;7.87;6.33;;;22.40;1.00;;;;;;6304471;22;20378;-40
2023/10/12 10:36:35;;;;;;;9.43;7.53;;;22.50;1.00;;;;;;6304957;22;20397;-39
2023/10/12 10:44:13;;;;;;;7.20;6.50;;;22.70;1.00;;;;;;6299917;22;20488;-40
2023/10/12 10:46:44;;;;;;;6.93;6.30;;;22.80;1.00;;;;;;6297950;22;20347;-40
2023/10/12 10:49:15;;;;;;;9.63;6.30;;;22.90;1.00;;;;;;6302059;22;20354;-41
2023/10/12 10:51:48;;;;;;;7.97;6.60;;;23.00;1.00;;;;;;6276897;22;20424;-42
2023/10/12 10:54:18;;;;;;;8.90;7.07;;;23.00;1.00;;;;;;6303999;22;20451;-41
2023/10/12 10:56:48;;;;;;;10.30;6.63;;;23.10;1.00;;;;;;6303954;22;20670;-44
2023/10/12 10:59:17;;;;;;;7.83;6.97;;;23.10;1.00;;;;;;6302411;22;20378;-41
2023/10/12 11:01:48;;;;;;;7.60;5.80;;;23.20;1.00;;;;;;6302792;22;20649;-42
2023/10/12 11:04:36;;;;;;;8.40;6.33;;;23.30;1.00;;;;;;6303923;22;20362;-41
2023/10/12 11:07:03;;;;;;;8.00;6.67;;;23.30;1.00;;;;;;6303493;22;20660;-41
2023/10/12 11:09:31;;;;;;;7.50;6.33;;;23.40;1.00;;;;;;6304124;22;20641;-41
2023/10/12 11:12:00;;;;;;;7.50;6.07;;;23.50;1.00;;;;;;6273565;22;20413;-41
2023/10/12 11:14:31;;;;;;;9.53;6.20;;;23.50;1.00;;;;;;6272644;22;20394;-42
2023/10/12 11:17:05;;;;;;;7.00;6.40;;;23.60;1.00;;;;;;6272852;22;20422;-40
2023/10/12 11:19:33;;;;;;;10.03;6.40;;;23.60;1.00;;;;;;6299249;22;20711;-46
2023/10/12 11:21:58;;;;;;;8.60;7.00;;;23.70;1.00;;;;;;6270897;22;20388;-42
2023/10/12 11:24:24;;;;;;;8.50;6.20;;;23.70;1.00;;;;;;6301962;22;20939;-43
2023/10/12 11:26:55;;;;;;;6.87;6.17;;;23.70;1.00;;;;;;6272580;22;20393;-45
2023/10/12 11:29:22;;;;;;;7.80;6.10;;;23.70;1.00;;;;;;6299585;22;20504;-41
2023/10/12 11:32:16;;;;;;;7.60;6.90;;;23.70;1.00;;;;;;6301147;22;20441;-42
2023/10/12 11:34:50;;;;;;;7.40;6.60;;;23.70;1.00;;;;;;6301537;22;20355;-40
2023/10/12 11:37:16;;;;;;;8.10;6.80;;;23.70;1.00;;;;;;6299425;22;20406;-44
2023/10/12 11:39:43;;;;;;;7.77;6.10;;;23.80;1.00;;;;;;6301541;22;20382;-41
2023/10/12 11:42:12;;;;;;;7.77;6.57;;;23.80;1.00;;;;;;6301108;22;20390;-42
2023/10/12 11:44:42;;;;;;;7.20;5.63;;;23.90;1.00;;;;;;6274654;22;20398;-44
2023/10/12 11:47:08;;;;;;;30.50;9.60;;;24.10;1.00;;;;;;6300234;22;20642;-40
2023/10/12 11:49:47;;;;;;;11.30;7.30;;;24.30;1.00;;;;;;6273601;22;20378;-41
2023/10/12 11:52:14;;;;;;;11.17;6.70;;;24.50;1.00;;;;;;6302818;22;20358;-44
2023/10/12 11:54:40;;;;;;;8.70;7.30;;;24.70;1.00;;;;;;6302763;22;20383;-39
2023/10/12 11:57:07;;;;;;;10.30;7.77;;;24.80;1.00;;;;;;6300254;22;20539;-41
2023/10/12 11:59:35;;;;;;;13.83;7.17;;;24.90;1.00;;;;;;6299030;22;20681;-42
2023/10/12 12:02:09;;;;;;;8.53;6.33;;;25.00;1.00;;;;;;6297378;22;20379;-41
2023/10/12 12:04:40;;;;;;;8.70;6.60;;;25.10;1.00;;;;;;6302743;22;20351;-41
2023/10/12 12:07:16;;;;;;;11.70;6.97;;;25.20;1.00;;;;;;6304753;22;20462;-42
2023/10/12 12:09:48;;;;;;;9.83;6.67;;;25.30;1.00;;;;;;6302413;22;20394;-43
2023/10/12 12:12:16;;;;;;;8.83;5.63;;;25.30;1.00;;;;;;6303763;22;20408;-41
2023/10/12 12:14:49;;;;;;;8.20;6.27;;;25.30;1.00;;;;;;6304686;22;20400;-41
2023/10/12 12:17:17;;;;;;;10.40;6.43;;;25.20;1.00;;;;;;6306952;22;20430;-43
2023/10/12 12:19:43;;;;;;;10.53;6.30;;;25.20;1.00;;;;;;6264617;22;20528;-44
2023/10/12 12:22:15;;;;;;;9.40;6.20;;;25.10;1.00;;;;;;6275548;22;20604;-43
2023/10/12 12:24:44;;;;;;;8.63;6.47;;;25.00;1.00;;;;;;6271870;22;20437;-40
2023/10/12 12:27:37;;;;;;;8.17;6.33;;;24.90;1.00;;;;;;6273189;22;20387;-43
2023/10/12 12:30:08;;;;;;;7.43;5.50;;;24.90;1.00;;;;;;6273692;22;20383;-41
2023/10/12 12:32:35;;;;;;;9.73;6.07;;;24.70;1.00;;;;;;6274402;22;20383;-42
2023/10/12 12:35:02;;;;;;;8.57;5.70;;;24.70;1.00;;;;;;6247871;22;20387;-41
2023/10/12 12:37:29;;;;;;;7.00;5.87;;;24.60;1.00;;;;;;6246049;22;20794;-41
2023/10/12 12:40:29;;;;;;;11.77;5.90;;;24.50;1.00;;;;;;6245895;22;20970;-43
2023/10/12 12:42:46;;;;;;;9.27;6.13;;;24.40;1.00;;;;;;6266182;22;20453;-40
2023/10/12 12:45:12;;;;;;;10.80;6.30;;;24.30;1.00;;;;;;6273237;22;20554;-41
2023/10/12 12:47:38;;;;;;;12.80;6.53;;;24.30;1.00;;;;;;6244467;22;20156;-40
2023/10/12 12:50:03;;;;;;;7.07;5.23;;;24.20;1.00;;;;;;6270981;22;20239;-41
2023/10/12 12:52:29;;;;;;;9.17;6.43;;;24.20;1.00;;;;;;6272267;22;20592;-42
2023/10/12 12:54:55;;;;;;;8.33;6.03;;;24.10;1.00;;;;;;6275688;22;20189;-42
2023/10/12 12:57:23;;;;;;;10.37;5.27;;;24.10;1.00;;;;;;6272495;22;20861;-41
2023/10/12 12:59:48;;;;;;;9.60;5.33;;;24.10;1.00;;;;;;6275032;22;20443;-42
2023/10/12 13:02:14;;;;;;;7.17;6.47;;;24.00;1.00;;;;;;6274539;22;20409;-41
2023/10/12 13:04:40;;;;;;;8.17;5.67;;;24.00;1.00;;;;;;6272887;22;20133;-44
2023/10/12 13:07:08;;;;;;;8.43;5.33;;;23.90;1.00;;;;;;6275570;22;20152;-40
2023/10/12 13:09:36;;;;;;;7.00;5.77;;;23.90;1.00;;;;;;6274169;22;20149;-41
2023/10/12 13:12:05;;;;;;;6.57;5.80;;;23.90;1.00;;;;;;6246993;22;20391;-43
2023/10/12 13:14:31;;;;;;;8.53;5.97;;;23.90;1.00;;;;;;6274367;22;20421;-41
2023/10/12 13:16:57;;;;;;;8.27;5.30;;;23.90;1.00;;;;;;6276269;22;20437;-43
2023/10/12 13:19:24;;;;;;;6.40;5.80;;;23.90;1.00;;;;;;6286954;22;20817;-42
2023/10/12 13:21:50;;;;;;;7.07;5.73;;;24.00;1.00;;;;;;6304660;22;20711;-41
2023/10/12 13:24:16;;;;;;;10.83;6.37;;;24.00;1.00;;;;;;6306597;22;20480;-41
2023/10/12 13:26:44;;;;;;;8.10;5.43;;;24.10;1.00;;;;;;6305369;22;20666;-42
2023/10/12 13:29:13;;;;;;;9.77;6.00;;;24.20;1.00;;;;;;6304611;22;20147;-41
2023/10/12 13:31:39;;;;;;;6.97;5.73;;;24.30;1.00;;;;;;6306116;22;20679;-40
2023/10/12 13:34:05;;;;;;;7.20;6.20;;;24.40;1.00;;;;;;6303465;22;20354;-42
2023/10/12 13:36:34;;;;;;;9.13;5.80;;;24.50;1.00;;;;;;6304516;22;20394;-41
2023/10/12 13:39:00;;;;;;;7.53;5.80;;;24.50;1.00;;;;;;6277624;22;20438;-40
2023/10/12 13:41:26;;;;;;;10.00;5.57;;;24.60;1.00;;;;;;6303793;22;20411;-42
2023/10/12 13:43:52;;;;;;;6.83;5.30;;;24.70;1.00;;;;;;6275598;22;20128;-41
2023/10/12 13:46:18;;;;;;;7.60;5.90;;;24.70;1.00;;;;;;6275249;22;20762;-42
2023/10/12 13:48:47;;;;;;;10.00;5.97;;;24.80;1.00;;;;;;6301961;22;20151;-41
2023/10/12 13:51:23;;;;;;;8.63;5.93;;;24.90;1.00;;;;;;6298853;22;20152;-42
2023/10/12 13:53:53;;;;;;;11.83;5.80;;;24.90;1.00;;;;;;6302331;22;20385;-41
2023/10/12 13:56:23;;;;;;;7.97;5.80;;;25.00;1.00;;;;;;6274977;22;20886;-41
2023/10/12 13:58:52;;;;;;;7.97;6.47;;;25.10;1.00;;;;;;6275300;22;20550;-42
2023/10/12 14:01:21;;;;;;;9.33;5.43;;;25.10;1.00;;;;;;6302344;22;20354;-41
2023/10/12 14:03:57;;;;;;;7.13;6.00;;;25.10;1.00;;;;;;6302574;22;20622;-41
2023/10/12 14:06:27;;;;;;;14.93;6.03;;;25.20;1.00;;;;;;6302122;22;20457;-40
2023/10/12 14:08:54;;;;;;;7.53;5.93;;;25.20;1.00;;;;;;6273700;22;20378;-41
2023/10/12 14:11:20;;;;;;;12.03;6.37;;;25.30;1.00;;;;;;6299120;22;20386;-40
2023/10/12 14:13:46;;;;;;;6.50;5.80;;;25.40;1.00;;;;;;6299617;22;20430;-41
2023/10/12 14:16:13;;;;;;;9.07;6.40;;;25.40;1.00;;;;;;6274507;22;20836;-41
2023/10/12 14:18:39;;;;;;;9.47;6.47;;;25.40;1.00;;;;;;6301996;22;20722;-40
2023/10/12 14:21:10;;;;;;;8.33;5.63;;;25.40;1.00;;;;;;6300662;22;20401;-40
2023/10/12 14:23:43;;;;;;;7.30;5.37;;;25.40;1.00;;;;;;6300971;22;20382;-42
2023/10/12 14:26:22;;;;;;;7.93;6.43;;;25.30;1.00;;;;;;6299952;22;20397;-41
2023/10/12 14:28:50;;;;;;;7.70;6.47;;;25.20;1.00;;;;;;6274148;22;20431;-41
2023/10/12 14:31:16;;;;;;;9.03;5.90;;;25.10;1.00;;;;;;6301790;22;20793;-43
2023/10/12 14:33:42;;;;;;;8.73;6.57;;;25.10;1.00;;;;;;6298046;22;20401;-42
2023/10/12 14:36:09;;;;;;;9.60;6.67;;;25.10;1.00;;;;;;6299873;22;20386;-40
2023/10/12 14:38:35;;;;;;;6.80;5.00;;;25.10;1.00;;;;;;6300488;22;20483;-41
2023/10/12 14:41:00;;;;;;;9.57;5.63;;;25.10;1.00;;;;;;6303546;22;20382;-40
2023/10/12 14:43:30;;;;;;;8.53;5.60;;;25.10;1.00;;;;;;6304265;22;20712;-41
2023/10/12 14:45:57;;;;;;;6.53;4.80;;;25.10;1.00;;;;;;6301665;22;20152;-41
2023/10/12 14:48:23;;;;;;;7.67;6.30;;;25.20;1.00;;;;;;6299956;22;20386;-42
2023/10/12 14:51:09;;;;;;;9.27;6.30;;;25.40;1.00;;;;;;6299714;22;20452;-41
2023/10/12 14:53:35;;;;;;;6.37;5.67;;;25.60;1.00;;;;;;6303320;22;20413;-43
2023/10/12 14:56:03;;;;;;;8.47;6.30;;;25.90;1.00;;;;;;6301881;22;20401;-42
2023/10/12 14:58:29;;;;;;;11.00;5.83;;;26.10;1.00;;;;;;6302728;22;20419;-42
2023/10/12 15:00:56;;;;;;;7.30;6.47;;;26.50;1.00;;;;;;6303106;22;20386;-42
2023/10/12 15:03:22;;;;;;;9.20;6.33;;;26.90;1.00;;;;;;6301817;22;20386;-43
2023/10/12 15:05:53;;;;;;;6.67;5.97;;;27.30;1.00;;;;;;6304721;22;20350;-42
2023/10/12 15:08:25;;;;;;;9.20;5.57;;;27.60;1.00;;;;;;6304910;22;20370;-42
2023/10/12 15:10:51;;;;;;;12.50;6.40;;;27.90;1.00;;;;;;6277397;22;20420;-42
2023/10/12 15:13:17;;;;;;;6.60;5.80;;;28.00;1.00;;;;;;6301454;22;20821;-42
2023/10/12 15:15:46;;;;;;;7.63;5.10;;;28.10;1.00;;;;;;6303494;22;20437;-41
2023/10/12 15:18:13;;;;;;;5.93;5.30;;;28.20;1.00;;;;;;6303231;22;20518;-43
2023/10/12 15:20:39;;;;;;;8.57;6.33;;;28.20;1.00;;;;;;6300388;22;21004;-40